Time;durP1;ratioP1;P1;durP2;ratioP2;P2;SDS_P1;SDS_P2;PMS_P1;PMS_P2;Temp;Humidity;BMP_temperature;BMP_pressure;BME280_temperature;BME280_humidity;BME280_pressure;Samples;Min_cycle;Max_cycle;Signal;HPM_P1;HPM_P2
2023/05/10 00:00:00;;;;;;;1999.90;999.90;;;11.90;99.90;;;;;;5066704;28;20044;-79
2023/05/10 00:02:26;;;;;;;1999.90;999.90;;;11.90;99.90;;;;;;5051743;28;20056;-79
2023/05/10 00:04:52;;;;;;;1999.90;999.90;;;11.90;99.90;;;;;;5062490;28;20045;-79
2023/05/10 00:07:17;;;;;;;1999.90;999.90;;;11.90;99.90;;;;;;5066274;28;20077;-78
2023/05/10 00:09:43;;;;;;;1999.90;999.90;;;11.90;99.90;;;;;;5063198;28;20041;-79
2023/05/10 00:12:09;;;;;;;1999.90;999.90;;;11.90;99.90;;;;;;5055437;28;20517;-79
2023/05/10 00:14:35;;;;;;;1999.90;999.90;;;11.80;99.90;;;;;;5071569;28;20089;-79
2023/05/10 00:17:00;;;;;;;1999.90;999.90;;;11.70;99.90;;;;;;5047318;28;20406;-79
2023/05/10 00:19:26;;;;;;;1999.90;999.90;;;11.80;99.90;;;;;;5067292;28;20380;-79
2023/05/10 00:21:52;;;;;;;1999.90;999.90;;;11.80;99.90;;;;;;5065675;28;20032;-78
2023/05/10 00:24:18;;;;;;;1999.90;999.90;;;11.70;99.90;;;;;;5066762;28;20028;-79
2023/05/10 00:26:43;;;;;;;1999.90;999.90;;;11.70;99.90;;;;;;5049366;28;20020;-79
2023/05/10 00:29:09;;;;;;;1999.90;999.90;;;11.70;99.90;;;;;;5060956;28;20113;-79
2023/05/10 00:31:35;;;;;;;1999.90;999.90;;;11.60;99.90;;;;;;5048173;28;20055;-79
2023/05/10 00:34:01;;;;;;;1999.90;999.90;;;11.60;99.90;;;;;;5064806;28;20113;-79
2023/05/10 00:36:27;;;;;;;1999.90;999.90;;;11.60;99.90;;;;;;5065536;28;20028;-79
2023/05/10 00:38:53;;;;;;;1999.90;999.90;;;11.60;99.90;;;;;;5064211;28;20058;-79
2023/05/10 00:41:20;;;;;;;1999.90;999.90;;;11.60;99.90;;;;;;5045573;28;20029;-79
2023/05/10 00:43:46;;;;;;;1999.90;999.90;;;11.50;99.90;;;;;;5063580;28;20028;-79
2023/05/10 00:46:13;;;;;;;1999.90;999.90;;;11.60;99.90;;;;;;5048797;28;20025;-80
2023/05/10 00:48:39;;;;;;;1999.90;999.90;;;11.60;99.90;;;;;;5045232;28;20032;-79
2023/05/10 00:51:05;;;;;;;1999.90;999.90;;;11.50;99.90;;;;;;5066055;28;20033;-79
2023/05/10 00:53:32;;;;;;;1999.90;999.90;;;11.60;99.90;;;;;;5065780;28;20028;-79
2023/05/10 00:55:59;;;;;;;1999.90;999.90;;;11.60;99.90;;;;;;5062643;28;20024;-79
2023/05/10 00:58:28;;;;;;;1999.90;999.90;;;11.60;99.90;;;;;;5045702;28;20024;-79
2023/05/10 01:00:56;;;;;;;1999.90;999.90;;;11.60;99.90;;;;;;5042620;28;20028;-79
2023/05/10 01:03:21;;;;;;;1999.90;999.90;;;11.60;99.90;;;;;;5033951;28;20071;-79
2023/05/10 01:05:47;;;;;;;1999.90;999.90;;;11.60;99.90;;;;;;5047808;28;20067;-79
2023/05/10 01:08:13;;;;;;;1999.90;999.90;;;11.50;99.90;;;;;;5044565;28;20487;-79
2023/05/10 01:10:38;;;;;;;1999.90;999.90;;;11.50;99.90;;;;;;5065797;28;20024;-79
2023/05/10 01:13:04;;;;;;;1999.90;999.90;;;11.60;99.90;;;;;;5063771;28;20486;-80
2023/05/10 01:15:31;;;;;;;1999.90;999.90;;;11.50;99.90;;;;;;5065138;28;20037;-80
2023/05/10 01:17:57;;;;;;;1999.90;999.90;;;11.60;99.90;;;;;;5060750;28;20446;-80
2023/05/10 01:20:23;;;;;;;1999.90;999.90;;;11.60;99.90;;;;;;5063506;28;20040;-79
2023/05/10 01:23:10;;;;;;;1999.90;999.90;;;11.60;99.90;;;;;;5048992;28;20449;-79
2023/05/10 01:25:45;;;;;;;1999.90;999.90;;;11.60;99.90;;;;;;5058898;28;21150;-79
2023/05/10 01:28:41;;;;;;;1999.90;999.90;;;11.50;99.90;;;;;;5056408;28;20033;-79
2023/05/10 01:31:40;;;;;;;1999.90;999.90;;;11.50;99.90;;;;;;5065396;28;20069;-79
2023/05/10 01:34:31;;;;;;;1999.90;999.90;;;11.60;99.90;;;;;;5061923;28;20055;-79
2023/05/10 01:37:10;;;;;;;1999.90;999.90;;;11.60;99.90;;;;;;5007744;28;21342;-79
2023/05/10 01:40:01;;;;;;;1999.90;999.90;;;11.60;99.90;;;;;;5061657;28;20032;-79
2023/05/10 01:42:33;;;;;;;1999.90;999.90;;;11.60;99.90;;;;;;5061800;28;20132;-80
2023/05/10 01:45:02;;;;;;;1999.90;999.90;;;11.60;99.90;;;;;;5061827;28;20569;-79
2023/05/10 01:47:40;;;;;;;1999.90;999.90;;;11.50;99.90;;;;;;5039366;28;20033;-79
2023/05/10 01:50:14;;;;;;;1999.90;999.90;;;11.50;99.90;;;;;;5062554;28;20029;-80
2023/05/10 01:52:49;;;;;;;1999.90;999.90;;;11.50;99.90;;;;;;5061038;28;20032;-79
2023/05/10 01:55:18;;;;;;;1999.90;999.90;;;11.50;99.90;;;;;;5064711;28;20021;-79
2023/05/10 01:57:46;;;;;;;1999.90;999.90;;;11.50;99.90;;;;;;5062207;28;20531;-79
2023/05/10 02:00:13;;;;;;;1999.90;999.90;;;11.50;99.90;;;;;;5048337;28;20037;-79
2023/05/10 02:02:46;;;;;;;1999.90;999.90;;;11.50;99.90;;;;;;5063481;28;20120;-79
2023/05/10 02:05:14;;;;;;;1999.90;999.90;;;11.50;99.90;;;;;;5064534;28;20032;-79
2023/05/10 02:07:41;;;;;;;1999.90;999.90;;;11.50;99.90;;;;;;5045161;28;20024;-79
2023/05/10 02:10:09;;;;;;;1999.90;999.90;;;11.50;99.90;;;;;;5046749;28;20031;-79
2023/05/10 02:12:54;;;;;;;1999.90;999.90;;;11.50;99.90;;;;;;5064409;28;20455;-79
2023/05/10 02:15:23;;;;;;;1999.90;999.90;;;11.50;99.90;;;;;;5046964;28;20028;-80
2023/05/10 02:17:49;;;;;;;1999.90;999.90;;;11.50;99.90;;;;;;5060711;28;20040;-79
2023/05/10 02:20:16;;;;;;;1999.90;999.90;;;11.50;99.90;;;;;;5046103;28;20605;-79
2023/05/10 02:22:44;;;;;;;1999.90;999.90;;;11.50;99.90;;;;;;5044298;28;20518;-79
2023/05/10 02:25:13;;;;;;;1999.90;999.90;;;11.50;99.90;;;;;;5058699;28;20036;-79
2023/05/10 02:27:41;;;;;;;1999.90;999.90;;;11.50;99.90;;;;;;5048492;28;20032;-79
2023/05/10 02:30:07;;;;;;;1999.90;999.90;;;11.40;99.90;;;;;;5062350;28;20495;-79
2023/05/10 02:32:35;;;;;;;1999.90;999.90;;;11.40;99.90;;;;;;5042967;28;20025;-79
2023/05/10 02:35:02;;;;;;;1999.90;999.90;;;11.40;99.90;;;;;;5064057;28;20673;-79
2023/05/10 02:37:29;;;;;;;1999.90;999.90;;;11.30;99.90;;;;;;5047109;28;20173;-79
2023/05/10 02:39:56;;;;;;;1999.90;999.90;;;11.30;99.90;;;;;;5061125;28;20035;-79
2023/05/10 02:42:31;;;;;;;1999.90;999.90;;;11.20;99.90;;;;;;5043765;28;20047;-79
2023/05/10 02:45:02;;;;;;;1999.90;999.90;;;11.20;99.90;;;;;;5062606;28;20060;-79
2023/05/10 02:47:28;;;;;;;1999.90;999.90;;;11.20;99.90;;;;;;5067292;28;20051;-79
2023/05/10 02:49:55;;;;;;;1999.90;999.90;;;11.10;99.90;;;;;;5062931;28;20399;-78
2023/05/10 02:52:27;;;;;;;1999.90;999.90;;;11.10;99.90;;;;;;5045891;28;20678;-79
2023/05/10 02:54:58;;;;;;;1999.90;999.90;;;11.10;99.90;;;;;;5058503;28;20489;-79
2023/05/10 02:57:27;;;;;;;1999.90;999.90;;;11.10;99.90;;;;;;5038987;28;20040;-78
2023/05/10 02:59:53;;;;;;;1999.90;999.90;;;11.20;99.90;;;;;;5057388;28;20047;-79
2023/05/10 03:02:19;;;;;;;1999.90;999.90;;;11.20;99.90;;;;;;5042441;28;20411;-79
2023/05/10 03:04:45;;;;;;;1999.90;999.90;;;11.10;99.90;;;;;;5044977;28;20494;-79
2023/05/10 03:07:11;;;;;;;1999.90;999.90;;;11.10;99.90;;;;;;5060612;28;20044;-79
2023/05/10 03:09:37;;;;;;;1999.90;999.90;;;11.00;99.90;;;;;;5059600;28;20100;-78
2023/05/10 03:12:07;;;;;;;1999.90;999.90;;;10.90;99.90;;;;;;5063542;28;20047;-78
2023/05/10 03:14:39;;;;;;;1999.90;999.90;;;10.90;99.90;;;;;;5062778;28;20174;-79
2023/05/10 03:17:22;;;;;;;1999.90;999.90;;;10.80;99.90;;;;;;5062054;28;20114;-80
2023/05/10 03:19:59;;;;;;;1999.90;999.90;;;10.80;99.90;;;;;;5040884;28;20020;-79
2023/05/10 03:22:32;;;;;;;1999.90;999.90;;;10.80;99.90;;;;;;5045440;28;20036;-79
2023/05/10 03:25:00;;;;;;;1999.90;999.90;;;10.70;99.90;;;;;;5047865;28;20082;-79
2023/05/10 03:27:27;;;;;;;1999.90;999.90;;;10.70;99.90;;;;;;5057771;28;20032;-79
2023/05/10 03:29:55;;;;;;;1999.90;999.90;;;10.70;99.90;;;;;;5041176;28;20028;-80
2023/05/10 03:32:21;;;;;;;1999.90;999.90;;;10.60;99.90;;;;;;5063958;28;20037;-79
2023/05/10 03:34:47;;;;;;;1999.90;999.90;;;10.60;99.90;;;;;;5068150;28;20032;-79
2023/05/10 03:37:13;;;;;;;1999.90;999.90;;;10.60;99.90;;;;;;5063395;28;20039;-79
2023/05/10 03:39:38;;;;;;;1999.90;999.90;;;10.60;99.90;;;;;;5056058;28;20025;-79
2023/05/10 03:42:04;;;;;;;1999.90;999.90;;;10.50;99.90;;;;;;5042342;28;20029;-79
2023/05/10 03:44:31;;;;;;;1999.90;999.90;;;10.50;99.90;;;;;;5062050;28;20276;-79
2023/05/10 03:46:56;;;;;;;1999.90;999.90;;;10.60;99.90;;;;;;5045574;28;20032;-79
2023/05/10 03:49:22;;;;;;;1999.90;999.90;;;10.50;99.90;;;;;;5032240;28;20029;-79
2023/05/10 03:51:48;;;;;;;1999.90;999.90;;;10.60;99.90;;;;;;5064258;28;20044;-79
2023/05/10 03:54:14;;;;;;;1999.90;999.90;;;10.60;99.90;;;;;;5047247;28;20027;-80
2023/05/10 03:56:40;;;;;;;1999.90;999.90;;;10.60;99.90;;;;;;5045701;28;20021;-79
2023/05/10 03:59:07;;;;;;;1999.90;999.90;;;10.60;99.90;;;;;;5043581;28;20036;-79
2023/05/10 04:01:33;;;;;;;1999.90;999.90;;;10.60;99.90;;;;;;5056838;28;20020;-79
2023/05/10 04:03:59;;;;;;;1999.90;999.90;;;10.50;99.90;;;;;;5062965;28;20094;-79
2023/05/10 04:06:25;;;;;;;1999.90;999.90;;;10.60;99.90;;;;;;5042487;28;20107;-79
2023/05/10 04:08:50;;;;;;;1999.90;999.90;;;10.60;99.90;;;;;;5064765;28;20036;-79
2023/05/10 04:11:16;;;;;;;1999.90;999.90;;;10.60;99.90;;;;;;5059010;28;20056;-79
2023/05/10 04:13:42;;;;;;;1999.90;999.90;;;10.60;99.90;;;;;;5057603;28;20469;-78
2023/05/10 04:16:08;;;;;;;1999.90;999.90;;;10.60;99.90;;;;;;5064698;28;20086;-79
2023/05/10 04:18:34;;;;;;;1999.90;999.90;;;10.60;99.90;;;;;;5043366;28;20035;-79
2023/05/10 04:21:00;;;;;;;1999.90;999.90;;;10.70;99.90;;;;;;5057716;28;20032;-79
2023/05/10 04:23:27;;;;;;;1999.90;999.90;;;10.60;99.90;;;;;;5053252;28;20037;-79
2023/05/10 04:25:59;;;;;;;1999.90;999.90;;;10.70;99.90;;;;;;5041314;28;20055;-80
2023/05/10 04:28:25;;;;;;;1999.90;999.90;;;10.70;99.90;;;;;;5059637;28;20036;-80
2023/05/10 04:30:51;;;;;;;1999.90;999.90;;;10.70;99.90;;;;;;5064905;28;20037;-79
2023/05/10 04:33:17;;;;;;;1999.90;999.90;;;10.70;99.90;;;;;;5060445;28;20037;-79
2023/05/10 04:35:42;;;;;;;1999.90;999.90;;;10.70;99.90;;;;;;5040083;28;20040;-79
2023/05/10 04:38:08;;;;;;;1999.90;999.90;;;10.70;99.90;;;;;;5057165;28;20037;-75
2023/05/10 04:40:34;;;;;;;1999.90;999.90;;;10.90;99.90;;;;;;5061731;28;20574;-75
2023/05/10 04:42:59;;;;;;;1999.90;999.90;;;10.80;99.90;;;;;;5040321;28;20112;-75
2023/05/10 04:45:25;;;;;;;1999.90;999.90;;;10.80;99.90;;;;;;5039765;28;20041;-76
2023/05/10 04:47:51;;;;;;;1999.90;999.90;;;10.90;99.90;;;;;;5038117;28;20046;-80
2023/05/10 04:50:17;;;;;;;1999.90;999.90;;;10.90;99.90;;;;;;5040431;28;20076;-79
2023/05/10 04:52:42;;;;;;;1999.90;999.90;;;10.90;99.90;;;;;;5040139;28;20391;-80
2023/05/10 04:55:09;;;;;;;1999.90;999.90;;;11.00;99.90;;;;;;5037869;28;20040;-82
2023/05/10 04:57:35;;;;;;;1999.90;999.90;;;10.90;99.90;;;;;;5028912;28;20057;-80
2023/05/10 05:00:01;;;;;;;1999.90;999.90;;;11.00;99.90;;;;;;5038750;28;20659;-80
2023/05/10 05:02:27;;;;;;;1999.90;999.90;;;11.00;99.90;;;;;;5046267;28;20120;-81
2023/05/10 05:04:52;;;;;;;1999.90;999.90;;;11.00;99.90;;;;;;5026498;28;20136;-81
2023/05/10 05:07:18;;;;;;;1999.90;999.90;;;11.00;99.90;;;;;;5024855;28;20065;-80
2023/05/10 05:09:44;;;;;;;1999.90;999.90;;;11.00;99.90;;;;;;5038336;28;20441;-80
2023/05/10 05:12:13;;;;;;;1999.90;999.90;;;11.10;99.90;;;;;;5041175;28;20475;-80
2023/05/10 05:14:39;;;;;;;1999.90;999.90;;;11.10;99.90;;;;;;5040558;28;20087;-79
2023/05/10 05:17:05;;;;;;;1999.90;999.90;;;11.10;99.90;;;;;;5058680;28;20033;-78
2023/05/10 05:19:31;;;;;;;1999.90;999.90;;;11.20;99.90;;;;;;5053419;28;20086;-78
2023/05/10 05:21:57;;;;;;;1999.90;999.90;;;11.30;99.90;;;;;;5048037;28;20033;-78
2023/05/10 05:24:22;;;;;;;1999.90;999.90;;;11.20;99.90;;;;;;5047480;28;20040;-79
2023/05/10 05:26:48;;;;;;;1999.90;999.90;;;11.30;99.90;;;;;;5043698;28;20041;-78
2023/05/10 05:29:14;;;;;;;1999.90;999.90;;;11.40;99.90;;;;;;5037944;28;20115;-78
2023/05/10 05:31:39;;;;;;;1999.90;999.90;;;11.40;99.90;;;;;;5043289;28;20025;-78
2023/05/10 05:34:05;;;;;;;1999.90;999.90;;;11.40;99.90;;;;;;5040043;28;20394;-78
2023/05/10 05:36:31;;;;;;;1999.90;999.90;;;11.40;99.90;;;;;;5043185;28;20552;-77
2023/05/10 05:38:57;;;;;;;1999.90;999.90;;;11.60;99.90;;;;;;5040346;28;20052;-78
2023/05/10 05:41:24;;;;;;;1999.90;999.90;;;11.70;99.90;;;;;;5041504;28;20040;-83
2023/05/10 05:43:50;;;;;;;1999.90;999.90;;;11.60;99.90;;;;;;5059905;28;20418;-83
2023/05/10 05:46:17;;;;;;;1999.90;999.90;;;11.80;99.90;;;;;;5061601;28;20032;-84
2023/05/10 05:48:42;;;;;;;1999.90;999.90;;;12.00;99.90;;;;;;5065600;28;20032;-84
2023/05/10 05:51:08;;;;;;;1999.90;999.90;;;12.00;99.90;;;;;;5055933;28;20051;-84
2023/05/10 05:53:33;;;;;;;1999.90;999.90;;;12.10;99.90;;;;;;5028966;28;20035;-83
2023/05/10 05:55:59;;;;;;;1999.90;999.90;;;12.10;99.90;;;;;;5033180;28;20070;-83
2023/05/10 05:58:25;;;;;;;1999.90;999.90;;;12.20;99.90;;;;;;5044630;28;20028;-84
2023/05/10 06:00:54;;;;;;;1999.90;999.90;;;12.10;99.10;;;;;;5068119;28;20031;-84
2023/05/10 06:03:20;;;;;;;1999.90;999.90;;;12.20;99.90;;;;;;5064237;28;20094;-85
2023/05/10 06:05:46;;;;;;;1999.90;999.90;;;12.40;99.90;;;;;;5064524;28;20463;-83
2023/05/10 06:08:12;;;;;;;1999.90;999.90;;;12.50;99.40;;;;;;5067605;28;20476;-83
2023/05/10 06:10:39;;;;;;;1999.90;999.90;;;12.60;99.00;;;;;;5066283;28;20534;-83
2023/05/10 06:13:04;;;;;;;1999.90;999.90;;;12.90;99.60;;;;;;5062230;28;20052;-84
2023/05/10 06:15:30;;;;;;;1999.90;999.90;;;12.70;96.80;;;;;;5046771;28;20059;-84
2023/05/10 06:17:56;;;;;;;1999.90;999.90;;;12.90;97.10;;;;;;5068593;28;20041;-83
2023/05/10 06:20:21;;;;;;;1999.90;999.90;;;13.00;96.10;;;;;;5067970;28;20032;-83
2023/05/10 06:22:47;;;;;;;1999.90;999.90;;;13.10;96.30;;;;;;5069030;28;20028;-83
2023/05/10 06:25:14;;;;;;;1999.90;999.90;;;13.20;95.40;;;;;;5056637;28;20081;-83
2023/05/10 06:27:41;;;;;;;1999.90;999.90;;;13.10;94.40;;;;;;5066792;28;20041;-84
2023/05/10 06:30:08;;;;;;;1999.90;999.90;;;13.30;95.00;;;;;;5071199;28;20103;-83
2023/05/10 06:32:34;;;;;;;1999.90;999.90;;;13.10;94.30;;;;;;5054524;28;20055;-83
2023/05/10 06:35:00;;;;;;;1999.90;999.90;;;13.30;94.30;;;;;;5066943;28;20057;-84
2023/05/10 06:37:26;;;;;;;1999.90;999.90;;;13.30;93.80;;;;;;5069057;28;20035;-82
2023/05/10 06:39:51;;;;;;;1999.90;999.90;;;13.40;93.00;;;;;;5067608;28;20041;-83
2023/05/10 06:42:17;;;;;;;1999.90;999.90;;;13.40;93.10;;;;;;5061525;28;20511;-83
2023/05/10 06:44:43;;;;;;;1999.90;999.90;;;13.40;92.90;;;;;;5064390;28;20123;-83
2023/05/10 06:47:09;;;;;;;1999.90;999.90;;;13.40;92.90;;;;;;5068648;28;20063;-83
2023/05/10 06:49:35;;;;;;;1999.90;999.90;;;13.50;92.50;;;;;;5063021;28;20123;-83
2023/05/10 06:52:00;;;;;;;1999.90;999.90;;;13.40;92.70;;;;;;5063452;28;20515;-82
2023/05/10 06:54:26;;;;;;;1999.90;999.90;;;13.60;92.80;;;;;;5064636;28;20032;-83
2023/05/10 06:56:52;;;;;;;1999.90;999.90;;;13.50;92.10;;;;;;5063628;28;20040;-83
2023/05/10 06:59:19;;;;;;;1999.90;999.90;;;13.50;92.10;;;;;;5066184;28;20399;-83
2023/05/10 07:01:44;;;;;;;1999.90;999.90;;;13.40;91.50;;;;;;5059945;28;20039;-83
2023/05/10 07:04:10;;;;;;;1999.90;999.90;;;13.50;91.70;;;;;;5065412;28;20036;-83
2023/05/10 07:06:36;;;;;;;1999.90;999.90;;;13.60;92.10;;;;;;5067755;28;20067;-83
2023/05/10 07:09:02;;;;;;;1999.90;999.90;;;13.50;91.20;;;;;;5062197;28;20122;-83
2023/05/10 07:11:28;;;;;;;1999.90;999.90;;;13.50;91.60;;;;;;5064959;28;20112;-83
2023/05/10 07:13:53;;;;;;;1999.90;999.90;;;13.30;91.70;;;;;;5062640;28;20124;-83
2023/05/10 07:16:19;;;;;;;1999.90;999.90;;;13.40;91.20;;;;;;5063431;28;20025;-83
2023/05/10 07:18:44;;;;;;;1999.90;999.90;;;13.30;91.00;;;;;;5046594;28;20028;-84
2023/05/10 07:21:12;;;;;;;1999.90;999.90;;;13.40;91.10;;;;;;5062399;28;20483;-83
2023/05/10 07:23:37;;;;;;;1999.90;999.90;;;13.40;91.20;;;;;;5068067;28;20055;-83
2023/05/10 07:26:03;;;;;;;1999.90;999.90;;;13.50;91.20;;;;;;5054073;28;20032;-82
2023/05/10 07:28:29;;;;;;;1999.90;999.90;;;13.40;91.50;;;;;;5059903;28;20124;-80
2023/05/10 07:30:54;;;;;;;1999.90;999.90;;;13.40;91.30;;;;;;5068744;28;20037;-82
2023/05/10 07:33:20;;;;;;;1999.90;999.90;;;13.40;91.50;;;;;;5068733;28;20033;-82
2023/05/10 07:35:47;;;;;;;1999.90;999.90;;;13.40;91.40;;;;;;5051748;28;20033;-82
2023/05/10 07:38:13;;;;;;;1999.90;999.90;;;13.50;90.80;;;;;;5053764;28;20539;-81
2023/05/10 07:40:39;;;;;;;1999.90;999.90;;;13.80;90.80;;;;;;5067651;28;20041;-82
2023/05/10 07:43:05;;;;;;;1999.90;999.90;;;13.90;90.10;;;;;;5066941;28;20044;-81
2023/05/10 07:45:34;;;;;;;1999.90;999.90;;;13.70;88.00;;;;;;5066216;28;20040;-82
2023/05/10 07:48:00;;;;;;;1999.90;999.90;;;13.80;87.80;;;;;;5067607;28;20048;-81
2023/05/10 07:50:25;;;;;;;1999.90;999.90;;;14.00;88.80;;;;;;5064685;28;20043;-81
2023/05/10 07:52:51;;;;;;;1999.90;999.90;;;13.90;88.40;;;;;;5061850;28;20037;-82
2023/05/10 07:55:19;;;;;;;1999.90;999.90;;;14.00;86.50;;;;;;5049480;28;20036;-81
2023/05/10 07:57:44;;;;;;;1999.90;999.90;;;14.10;87.90;;;;;;5068465;28;20036;-81
2023/05/10 08:00:13;;;;;;;1999.90;999.90;;;14.20;84.80;;;;;;5066953;28;20403;-82
2023/05/10 08:02:39;;;;;;;1999.90;999.90;;;14.00;86.00;;;;;;5066359;28;20394;-81
2023/05/10 08:05:05;;;;;;;1999.90;999.90;;;14.20;85.50;;;;;;5070144;28;20032;-80
2023/05/10 08:07:31;;;;;;;1999.90;999.90;;;14.30;85.10;;;;;;5067687;28;20147;-82
2023/05/10 08:09:56;;;;;;;1999.90;999.90;;;14.20;84.90;;;;;;5067509;28;20538;-81
2023/05/10 08:12:22;;;;;;;1999.90;999.90;;;14.30;86.20;;;;;;5072413;28;20047;-81
2023/05/10 08:14:48;;;;;;;1999.90;999.90;;;14.50;84.20;;;;;;5067521;28;20086;-81
2023/05/10 08:17:13;;;;;;;1999.90;999.90;;;14.70;86.00;;;;;;5069322;28;20063;-80
2023/05/10 08:19:39;;;;;;;1999.90;999.90;;;14.70;83.50;;;;;;5049125;28;20505;-81
2023/05/10 08:22:05;;;;;;;1999.90;999.90;;;14.60;83.70;;;;;;5065385;28;20091;-81
2023/05/10 08:24:30;;;;;;;1999.90;999.90;;;14.60;83.50;;;;;;5066018;28;20543;-81
2023/05/10 08:26:57;;;;;;;1999.90;999.90;;;14.60;84.10;;;;;;5066213;28;20082;-81
2023/05/10 08:29:24;;;;;;;1999.90;999.90;;;14.70;81.30;;;;;;5058312;28;20070;-81
2023/05/10 08:31:50;;;;;;;1999.90;999.90;;;14.70;82.30;;;;;;5063875;28;20629;-81
2023/05/10 08:34:15;;;;;;;1999.90;999.90;;;14.60;83.60;;;;;;5065299;28;20029;-81
2023/05/10 08:36:41;;;;;;;1999.90;999.90;;;14.70;83.70;;;;;;5068806;28;20035;-82
2023/05/10 08:39:07;;;;;;;1999.90;999.90;;;14.50;84.80;;;;;;5068841;28;20040;-82
2023/05/10 08:41:34;;;;;;;1999.90;999.90;;;14.60;83.10;;;;;;5068476;28;20079;-81
2023/05/10 08:44:05;;;;;;;1999.90;999.90;;;14.80;81.80;;;;;;5069745;28;20048;-81
2023/05/10 08:46:34;;;;;;;1999.90;999.90;;;14.70;81.10;;;;;;5069733;28;20033;-81
2023/05/10 08:49:04;;;;;;;1999.90;999.90;;;15.30;83.80;;;;;;5069018;28;20064;-81
2023/05/10 08:51:35;;;;;;;1999.90;999.90;;;15.60;80.80;;;;;;5067458;28;20386;-81
2023/05/10 08:54:02;;;;;;;1999.90;999.90;;;15.80;80.80;;;;;;5065196;28;20040;-80
2023/05/10 08:56:28;;;;;;;1999.90;999.90;;;15.90;77.90;;;;;;5069313;28;20033;-80
2023/05/10 08:58:53;;;;;;;1999.90;999.90;;;16.00;78.00;;;;;;5069420;28;20028;-80
2023/05/10 09:01:20;;;;;;;1999.90;999.90;;;15.80;75.80;;;;;;5070718;28;20517;-80
2023/05/10 09:03:48;;;;;;;1999.90;999.90;;;16.10;76.90;;;;;;5068703;28;20035;-81
2023/05/10 09:06:14;;;;;;;1999.90;999.90;;;16.20;75.30;;;;;;5064799;28;20087;-81
2023/05/10 09:08:41;;;;;;;1999.90;999.90;;;15.80;76.00;;;;;;5068934;28;20041;-81
2023/05/10 09:11:08;;;;;;;1999.90;999.90;;;15.90;76.40;;;;;;5069699;28;20119;-81
2023/05/10 09:13:35;;;;;;;1999.90;999.90;;;16.10;75.70;;;;;;5069706;28;20445;-81
2023/05/10 09:16:02;;;;;;;1999.90;999.90;;;16.40;74.30;;;;;;5070030;28;20058;-80
2023/05/10 09:18:28;;;;;;;1999.90;999.90;;;16.10;75.20;;;;;;5070578;28;20028;-80
2023/05/10 09:20:54;;;;;;;1999.90;999.90;;;16.00;75.20;;;;;;5070690;28;20089;-81
2023/05/10 09:23:20;;;;;;;1999.90;999.90;;;16.30;75.80;;;;;;5069857;28;20090;-80
2023/05/10 09:25:46;;;;;;;1999.90;999.90;;;16.60;74.60;;;;;;5071465;28;20020;-80
2023/05/10 09:28:12;;;;;;;1999.90;999.90;;;16.70;73.10;;;;;;5072890;28;20411;-80
2023/05/10 09:30:39;;;;;;;1999.90;999.90;;;16.40;74.40;;;;;;5070814;28;20116;-80
2023/05/10 09:33:04;;;;;;;1999.90;999.90;;;16.10;76.60;;;;;;5069452;28;20029;-80
2023/05/10 09:35:32;;;;;;;1999.90;999.90;;;15.70;74.70;;;;;;5067473;28;20090;-81
2023/05/10 09:38:00;;;;;;;1999.90;999.90;;;15.60;77.70;;;;;;5052887;28;20104;-80
2023/05/10 09:40:27;;;;;;;1999.90;999.90;;;15.40;77.40;;;;;;5088688;28;20033;-79
2023/05/10 09:43:07;;;;;;;1999.90;999.90;;;15.10;78.50;;;;;;5088850;28;20811;-79
2023/05/10 09:45:34;;;;;;;1999.90;999.90;;;14.30;78.90;;;;;;5068828;28;20025;-80
2023/05/10 09:48:02;;;;;;;1999.90;999.90;;;14.30;80.30;;;;;;5073593;28;20098;-80
2023/05/10 09:50:30;;;;;;;1999.90;999.90;;;14.00;82.80;;;;;;5067603;28;20055;-80
2023/05/10 09:53:00;;;;;;;1999.90;999.90;;;13.70;85.50;;;;;;5073011;28;20611;-81
2023/05/10 09:55:49;;;;;;;1999.90;999.90;;;13.10;90.00;;;;;;5069391;28;20035;-80
2023/05/10 09:58:14;;;;;;;1999.90;999.90;;;13.00;91.50;;;;;;5072246;28;20029;-81
2023/05/10 10:00:56;;;;;;;1999.90;999.90;;;12.80;92.20;;;;;;5053926;28;20037;-83
2023/05/10 10:03:22;;;;;;;1999.90;999.90;;;12.40;94.90;;;;;;5076959;28;20561;-81
2023/05/10 10:05:49;;;;;;;1999.90;999.90;;;12.20;96.40;;;;;;5050517;28;20545;-83
2023/05/10 10:08:15;;;;;;;1999.90;999.90;;;12.10;97.50;;;;;;5074962;28;20091;-84
2023/05/10 10:10:41;;;;;;;1999.90;999.90;;;12.00;98.20;;;;;;5066297;28;20027;-84
2023/05/10 10:13:07;;;;;;;1999.90;999.90;;;11.90;99.20;;;;;;5070662;28;20024;-85
2023/05/10 10:15:37;;;;;;;1999.90;999.90;;;11.90;99.90;;;;;;5068525;28;20039;-84
2023/05/10 10:18:04;;;;;;;1999.90;999.90;;;11.50;99.70;;;;;;5064508;28;20113;-83
2023/05/10 10:20:30;;;;;;;1999.90;999.90;;;11.30;99.90;;;;;;5052688;28;20041;-83
2023/05/10 10:22:56;;;;;;;1999.90;999.90;;;11.20;99.90;;;;;;5070599;28;20395;-84
2023/05/10 10:25:22;;;;;;;1999.90;999.90;;;11.10;99.90;;;;;;5055593;28;20058;-82
2023/05/10 10:28:16;;;;;;;1999.90;999.90;;;11.20;99.90;;;;;;5052909;28;20506;-83
2023/05/10 10:30:48;;;;;;;1999.90;999.90;;;11.20;99.90;;;;;;5068717;28;20053;-84
2023/05/10 10:33:14;;;;;;;1999.90;999.90;;;11.10;99.90;;;;;;5072141;28;20021;-84
2023/05/10 10:35:40;;;;;;;1999.90;999.90;;;11.20;99.90;;;;;;5067913;28;20035;-83
2023/05/10 10:38:08;;;;;;;1999.90;999.90;;;11.30;99.90;;;;;;5052800;28;20032;-82
2023/05/10 10:40:34;;;;;;;1999.90;999.90;;;11.50;99.90;;;;;;5070455;28;20040;-84
2023/05/10 10:43:26;;;;;;;1999.90;999.90;;;11.60;99.90;;;;;;5071543;28;20491;-84
2023/05/10 10:46:17;;;;;;;1999.90;999.90;;;11.70;99.90;;;;;;5071410;28;20044;-83
2023/05/10 10:49:01;;;;;;;;;;;11.80;99.90;;;;;;5076161;28;20032;-83
2023/05/10 10:51:29;;;;;;;1999.90;999.90;;;12.00;99.90;;;;;;5071146;28;19966;-83
2023/05/10 10:54:09;;;;;;;1999.90;999.90;;;12.40;99.90;;;;;;5055087;28;20033;-82
2023/05/10 10:56:35;;;;;;;1999.90;999.90;;;12.30;99.90;;;;;;5052646;28;20035;-78
2023/05/10 10:59:01;;;;;;;1999.90;999.90;;;12.40;99.90;;;;;;5068167;28;20449;-78
2023/05/10 11:01:34;;;;;;;1999.90;999.90;;;12.40;99.90;;;;;;5054183;28;20152;-78
2023/05/10 11:04:00;;;;;;;1999.90;999.90;;;12.20;99.90;;;;;;5067302;28;20035;-78
2023/05/10 11:06:33;;;;;;;1999.90;999.90;;;12.00;99.90;;;;;;5057511;28;20024;-78
2023/05/10 11:09:06;;;;;;;1999.90;999.90;;;12.00;99.90;;;;;;5067716;28;20039;-77
2023/05/10 11:11:33;;;;;;;1999.90;999.90;;;11.80;99.90;;;;;;5042569;28;20033;-80
2023/05/10 11:14:06;;;;;;;1999.90;999.90;;;12.10;99.90;;;;;;5057370;28;20025;-79
2023/05/10 11:16:43;;;;;;;1999.90;999.90;;;12.30;99.90;;;;;;5064020;28;20035;-80
2023/05/10 11:19:11;;;;;;;1999.90;999.90;;;12.40;99.90;;;;;;5062653;28;20501;-80
2023/05/10 11:21:53;;;;;;;1999.90;999.90;;;12.20;99.90;;;;;;5045500;28;20048;-79
2023/05/10 11:24:22;;;;;;;1999.90;999.90;;;12.30;99.90;;;;;;5065681;28;20083;-79
2023/05/10 11:26:52;;;;;;;1999.90;999.90;;;12.20;99.90;;;;;;5064594;28;20028;-79
2023/05/10 11:29:17;;;;;;;1999.90;999.90;;;12.40;99.90;;;;;;5063950;28;20055;-77
2023/05/10 11:31:45;;;;;;;1999.90;999.90;;;12.20;99.90;;;;;;5059749;28;20159;-76
2023/05/10 11:34:11;;;;;;;1999.90;999.90;;;12.20;99.90;;;;;;5068063;28;20525;-77
2023/05/10 11:36:37;;;;;;;1999.90;999.90;;;12.10;99.90;;;;;;5071809;28;20032;-77
2023/05/10 11:39:03;;;;;;;1999.90;999.90;;;11.90;99.90;;;;;;5074352;28;20075;-78
2023/05/10 11:41:30;;;;;;;1999.90;999.90;;;12.10;99.90;;;;;;5075215;28;20067;-78
2023/05/10 11:43:57;;;;;;;1999.90;999.90;;;12.20;99.90;;;;;;5057760;28;20064;-78
2023/05/10 11:46:26;;;;;;;1999.90;999.90;;;12.20;99.90;;;;;;5054505;28;20040;-78
2023/05/10 11:49:03;;;;;;;1999.90;999.90;;;12.00;99.90;;;;;;5044308;28;20084;-79
2023/05/10 11:51:30;;;;;;;1999.90;999.90;;;12.10;99.90;;;;;;5018237;28;20025;-78
2023/05/10 11:53:56;;;;;;;1999.90;999.90;;;12.00;99.90;;;;;;5050081;28;20025;-80
2023/05/10 11:56:23;;;;;;;1999.90;999.90;;;11.80;99.90;;;;;;5050093;28;20064;-79
2023/05/10 11:58:55;;;;;;;1999.90;999.90;;;11.60;99.90;;;;;;5033725;28;20496;-78
2023/05/10 12:01:22;;;;;;;1999.90;999.90;;;11.70;99.90;;;;;;5052577;28;20526;-79